Time;durP1;ratioP1;P1;durP2;ratioP2;P2;SDS_P1;SDS_P2;PMS_P1;PMS_P2;Temp;Humidity;BMP_temperature;BMP_pressure;BME280_temperature;BME280_humidity;BME280_pressure;Samples;Min_cycle;Max_cycle;Signal;HPM_P1;HPM_P2
2024/02/02 00:00:23;;;;;;;0.65;0.65;;;;;;;;;;1030423;28;20030;-78
2024/02/02 00:00:54;;;;;;;0.32;0.32;;;;;;;;;;1029939;28;20086;-78
2024/02/02 00:01:24;;;;;;;0.40;0.40;;;;;;;;;;1034119;28;20416;-78
2024/02/02 00:01:55;;;;;;;5.05;3.35;;;;;;;;;;1034768;28;20060;-78
2024/02/02 00:02:25;;;;;;;1.80;1.27;;;;;;;;;;1032018;28;20117;-78
2024/02/02 00:02:55;;;;;;;3.03;2.33;;;;;;;;;;1029845;28;20022;-79
2024/02/02 00:03:26;;;;;;;0.30;0.30;;;;;;;;;;1025410;28;20026;-79
2024/02/02 00:03:57;;;;;;;2.92;2.60;;;;;;;;;;1025896;28;20030;-78
2024/02/02 00:04:27;;;;;;;0.40;0.40;;;;;;;;;;1023688;28;20117;-78
2024/02/02 00:04:58;;;;;;;4.10;2.00;;;;;;;;;;1023609;29;20023;-78
2024/02/02 00:05:28;;;;;;;0.32;0.32;;;;;;;;;;1023535;29;20560;-79
2024/02/02 00:05:59;;;;;;;0.35;0.35;;;;;;;;;;1024055;28;20019;-78
2024/02/02 00:06:29;;;;;;;1.73;1.60;;;;;;;;;;1025594;28;20410;-78
2024/02/02 00:07:00;;;;;;;0.57;0.57;;;;;;;;;;1025628;28;20030;-78
2024/02/02 00:07:30;;;;;;;1.65;0.60;;;;;;;;;;1025636;28;20031;-78
2024/02/02 00:08:01;;;;;;;0.40;0.40;;;;;;;;;;1025915;28;20045;-78
2024/02/02 00:08:31;;;;;;;0.28;0.28;;;;;;;;;;1025018;28;20110;-79
2024/02/02 00:09:05;;;;;;;0.95;0.95;;;;;;;;;;1025512;28;20031;-78
2024/02/02 00:09:36;;;;;;;2.15;0.68;;;;;;;;;;1031577;28;20018;-78
2024/02/02 00:10:07;;;;;;;0.95;0.95;;;;;;;;;;1031953;28;20497;-78
2024/02/02 00:10:38;;;;;;;11.10;1.25;;;;;;;;;;1031645;28;20363;-78
2024/02/02 00:11:08;;;;;;;0.70;0.70;;;;;;;;;;1031900;28;20065;-78
2024/02/02 00:11:39;;;;;;;0.52;0.52;;;;;;;;;;1029802;28;20113;-79
2024/02/02 00:12:11;;;;;;;0.80;0.75;;;;;;;;;;1027932;28;20026;-78
2024/02/02 00:12:41;;;;;;;0.68;0.68;;;;;;;;;;1027652;28;20041;-78
2024/02/02 00:13:12;;;;;;;0.57;0.57;;;;;;;;;;1026039;28;20043;-78
2024/02/02 00:13:43;;;;;;;3.30;2.58;;;;;;;;;;1025704;28;20026;-78
2024/02/02 00:14:13;;;;;;;1.08;1.08;;;;;;;;;;1028973;28;20068;-79
2024/02/02 00:14:44;;;;;;;1.77;1.67;;;;;;;;;;1029842;28;20466;-79
2024/02/02 00:15:14;;;;;;;2.08;1.85;;;;;;;;;;1031297;28;20026;-78
2024/02/02 00:15:45;;;;;;;0.20;0.20;;;;;;;;;;1031756;28;20058;-78
2024/02/02 00:16:15;;;;;;;0.55;0.55;;;;;;;;;;1031832;28;20498;-78
2024/02/02 00:16:46;;;;;;;1.35;1.30;;;;;;;;;;1028546;28;20027;-78
2024/02/02 00:17:18;;;;;;;1.55;1.45;;;;;;;;;;1025087;28;20510;-78
2024/02/02 00:17:49;;;;;;;1.10;1.10;;;;;;;;;;1025719;28;20498;-78
2024/02/02 00:18:20;;;;;;;0.57;0.57;;;;;;;;;;1025103;28;20023;-79
2024/02/02 00:18:50;;;;;;;0.63;0.63;;;;;;;;;;1025542;28;20109;-79
2024/02/02 00:19:21;;;;;;;4.47;1.85;;;;;;;;;;1026865;28;20027;-78
2024/02/02 00:19:51;;;;;;;1.65;1.25;;;;;;;;;;1026659;28;20059;-78
2024/02/02 00:20:22;;;;;;;0.93;0.93;;;;;;;;;;1026333;28;20023;-78
2024/02/02 00:20:54;;;;;;;1.67;1.58;;;;;;;;;;1025511;28;20055;-78
2024/02/02 00:21:24;;;;;;;0.30;0.30;;;;;;;;;;1027773;28;20483;-78
2024/02/02 00:21:55;;;;;;;2.05;1.95;;;;;;;;;;1027980;28;20034;-78
2024/02/02 00:22:25;;;;;;;3.28;3.08;;;;;;;;;;1027684;28;20027;-78
2024/02/02 00:22:56;;;;;;;2.30;2.15;;;;;;;;;;1027609;28;20035;-78
2024/02/02 00:23:26;;;;;;;1.77;1.67;;;;;;;;;;1026299;28;20082;-78
2024/02/02 00:23:57;;;;;;;0.65;0.65;;;;;;;;;;1025784;28;20029;-78
2024/02/02 00:24:27;;;;;;;0.20;0.20;;;;;;;;;;1025584;28;20027;-78
2024/02/02 00:24:58;;;;;;;1.02;0.93;;;;;;;;;;1026862;28;20030;-78
2024/02/02 00:25:28;;;;;;;0.50;0.50;;;;;;;;;;1026539;28;20475;-78
2024/02/02 00:25:59;;;;;;;0.80;0.80;;;;;;;;;;1031736;28;20030;-78
2024/02/02 00:26:29;;;;;;;0.20;0.20;;;;;;;;;;1031757;28;20502;-78
2024/02/02 00:27:00;;;;;;;1.15;1.05;;;;;;;;;;1027591;28;20027;-79
2024/02/02 00:27:30;;;;;;;0.63;0.63;;;;;;;;;;1027785;28;20030;-79
2024/02/02 00:28:01;;;;;;;1.33;1.23;;;;;;;;;;1026909;28;20558;-78
2024/02/02 00:28:31;;;;;;;0.20;0.20;;;;;;;;;;1025957;28;20030;-78
2024/02/02 00:29:02;;;;;;;0.95;0.95;;;;;;;;;;1026517;28;20481;-78
2024/02/02 00:29:32;;;;;;;0.65;0.65;;;;;;;;;;1028712;28;20029;-79
2024/02/02 00:30:03;;;;;;;1.35;0.63;;;;;;;;;;1030081;28;20109;-78
2024/02/02 00:30:36;;;;;;;0.20;0.20;;;;;;;;;;1030115;28;20520;-79
2024/02/02 00:31:07;;;;;;;11.68;2.58;;;;;;;;;;1030641;28;20030;-78
2024/02/02 00:31:38;;;;;;;3.22;2.28;;;;;;;;;;1026287;28;20027;-78
2024/02/02 00:32:08;;;;;;;1.65;1.55;;;;;;;;;;1026022;28;20117;-78
2024/02/02 00:32:44;;;;;;;13.80;1.30;;;;;;;;;;1026653;28;20078;-78
2024/02/02 00:33:14;;;;;;;0.30;0.30;;;;;;;;;;1029876;28;20088;-78
2024/02/02 00:33:45;;;;;;;5.15;3.63;;;;;;;;;;1030380;28;20080;-78
2024/02/02 00:34:15;;;;;;;1.02;1.02;;;;;;;;;;1029755;28;20081;-78
2024/02/02 00:34:46;;;;;;;0.73;0.73;;;;;;;;;;1027994;28;20105;-79
2024/02/02 00:35:16;;;;;;;1.83;1.33;;;;;;;;;;1031264;28;20037;-79
2024/02/02 00:35:47;;;;;;;0.73;0.73;;;;;;;;;;1031357;28;20030;-78
2024/02/02 00:36:17;;;;;;;1.38;1.27;;;;;;;;;;1031494;28;20060;-78
2024/02/02 00:36:48;;;;;;;0.47;0.47;;;;;;;;;;1031434;28;20405;-78
2024/02/02 00:37:18;;;;;;;1.27;1.20;;;;;;;;;;1031353;28;20026;-78
2024/02/02 00:37:49;;;;;;;1.45;1.15;;;;;;;;;;1027428;28;20109;-79
2024/02/02 00:38:19;;;;;;;0.30;0.30;;;;;;;;;;1031594;28;20474;-79
2024/02/02 00:38:50;;;;;;;0.45;0.45;;;;;;;;;;1031702;28;20117;-79
2024/02/02 00:39:21;;;;;;;0.47;0.47;;;;;;;;;;1031641;28;20030;-79
2024/02/02 00:39:51;;;;;;;0.20;0.20;;;;;;;;;;1031594;28;20421;-78
2024/02/02 00:40:22;;;;;;;1.15;1.13;;;;;;;;;;1031603;28;20094;-78
2024/02/02 00:40:52;;;;;;;0.70;0.70;;;;;;;;;;1031685;28;20045;-78
2024/02/02 00:41:23;;;;;;;0.38;0.38;;;;;;;;;;1031634;28;20026;-78
2024/02/02 00:41:54;;;;;;;1.75;1.65;;;;;;;;;;1027625;28;20479;-78
2024/02/02 00:42:24;;;;;;;0.20;0.20;;;;;;;;;;1027636;28;20027;-78
2024/02/02 00:42:55;;;;;;;1.15;1.15;;;;;;;;;;1027568;28;20062;-78
2024/02/02 00:43:25;;;;;;;0.38;0.38;;;;;;;;;;1027662;28;20023;-78
2024/02/02 00:43:56;;;;;;;0.35;0.35;;;;;;;;;;1031778;28;20049;-78
2024/02/02 00:44:26;;;;;;;3.50;1.15;;;;;;;;;;1031464;28;20030;-78
2024/02/02 00:44:57;;;;;;;0.30;0.30;;;;;;;;;;1029181;28;20018;-78
2024/02/02 00:45:28;;;;;;;0.20;0.20;;;;;;;;;;1029385;28;20366;-78
2024/02/02 00:45:58;;;;;;;0.20;0.20;;;;;;;;;;1029762;28;20380;-78
2024/02/02 00:46:29;;;;;;;0.40;0.40;;;;;;;;;;1029742;28;20022;-78
2024/02/02 00:46:59;;;;;;;1.30;1.30;;;;;;;;;;1029466;28;20018;-78
2024/02/02 00:47:30;;;;;;;1.15;1.15;;;;;;;;;;1031646;28;20069;-78
2024/02/02 00:48:00;;;;;;;1.15;1.05;;;;;;;;;;1027694;28;20026;-79
2024/02/02 00:48:31;;;;;;;0.50;0.50;;;;;;;;;;1027630;28;20059;-78
2024/02/02 00:49:02;;;;;;;1.95;1.85;;;;;;;;;;1023323;28;20026;-78
2024/02/02 00:49:32;;;;;;;0.40;0.40;;;;;;;;;;1023293;28;20062;-78
2024/02/02 00:50:05;;;;;;;1.67;1.63;;;;;;;;;;1027647;28;20105;-78
2024/02/02 00:50:35;;;;;;;2.35;1.27;;;;;;;;;;1027813;28;20026;-78
2024/02/02 00:51:06;;;;;;;2.00;1.90;;;;;;;;;;1031819;28;20010;-78
2024/02/02 00:51:37;;;;;;;1.83;1.73;;;;;;;;;;1031606;28;20117;-78
2024/02/02 00:52:07;;;;;;;1.60;1.50;;;;;;;;;;1027574;28;20375;-78
2024/02/02 00:52:38;;;;;;;2.05;1.95;;;;;;;;;;1026997;28;20018;-78
2024/02/02 00:53:08;;;;;;;0.38;0.38;;;;;;;;;;1027717;28;20125;-78
2024/02/02 00:53:39;;;;;;;0.95;0.95;;;;;;;;;;1027568;28;20073;-78
2024/02/02 00:54:09;;;;;;;0.28;0.28;;;;;;;;;;1027518;28;20035;-78
2024/02/02 00:54:40;;;;;;;0.25;0.25;;;;;;;;;;1025220;28;20536;-78
2024/02/02 00:55:10;;;;;;;0.40;0.40;;;;;;;;;;1026465;28;20023;-79
2024/02/02 00:55:41;;;;;;;1.42;1.33;;;;;;;;;;1027149;28;20058;-78
2024/02/02 00:56:11;;;;;;;1.13;1.13;;;;;;;;;;1029280;28;20037;-78
2024/02/02 00:56:42;;;;;;;1.05;1.05;;;;;;;;;;1029325;28;20022;-78
2024/02/02 00:57:13;;;;;;;1.98;1.85;;;;;;;;;;1028310;28;20065;-78
2024/02/02 00:57:43;;;;;;;0.22;0.22;;;;;;;;;;1029657;28;20033;-78
2024/02/02 00:58:14;;;;;;;2.38;0.98;;;;;;;;;;1028212;28;20027;-78
2024/02/02 00:58:44;;;;;;;0.43;0.43;;;;;;;;;;1027922;28;20113;-78
2024/02/02 00:59:15;;;;;;;1.30;1.27;;;;;;;;;;1030127;28;20477;-78
2024/02/02 00:59:45;;;;;;;0.57;0.57;;;;;;;;;;1029638;28;20652;-78
2024/02/02 01:00:16;;;;;;;1.10;1.05;;;;;;;;;;1029805;28;20109;-78
2024/02/02 01:00:46;;;;;;;0.55;0.55;;;;;;;;;;1026445;28;20035;-79
2024/02/02 01:01:17;;;;;;;1.25;1.25;;;;;;;;;;1025778;28;20035;-78
2024/02/02 01:01:47;;;;;;;0.50;0.50;;;;;;;;;;1028065;28;20031;-78
2024/02/02 01:02:18;;;;;;;2.47;2.30;;;;;;;;;;1027696;28;20501;-79
2024/02/02 01:02:48;;;;;;;1.85;1.75;;;;;;;;;;1027292;28;20027;-79
2024/02/02 01:03:19;;;;;;;2.22;2.05;;;;;;;;;;1023659;28;20027;-78
2024/02/02 01:03:49;;;;;;;0.32;0.32;;;;;;;;;;1027841;28;20023;-78
2024/02/02 01:04:20;;;;;;;1.67;1.58;;;;;;;;;;1027524;28;20031;-78
2024/02/02 01:04:50;;;;;;;0.50;0.50;;;;;;;;;;1027455;28;20470;-78
2024/02/02 01:05:21;;;;;;;0.50;0.50;;;;;;;;;;1028904;28;20065;-78
2024/02/02 01:05:52;;;;;;;0.60;0.60;;;;;;;;;;1027496;28;20062;-78
2024/02/02 01:06:22;;;;;;;0.50;0.50;;;;;;;;;;1027332;28;20039;-78
2024/02/02 01:06:53;;;;;;;0.90;0.88;;;;;;;;;;1028179;28;20061;-79
2024/02/02 01:07:23;;;;;;;1.42;1.33;;;;;;;;;;1028917;28;20031;-78
2024/02/02 01:07:54;;;;;;;0.57;0.57;;;;;;;;;;1031125;28;20567;-78
2024/02/02 01:08:24;;;;;;;0.85;0.85;;;;;;;;;;1028965;28;20027;-79
2024/02/02 01:08:55;;;;;;;0.25;0.25;;;;;;;;;;1030693;28;20029;-79
2024/02/02 01:09:25;;;;;;;0.47;0.47;;;;;;;;;;1028970;28;20096;-78
2024/02/02 01:09:56;;;;;;;1.63;1.48;;;;;;;;;;1029477;28;20073;-78
2024/02/02 01:10:26;;;;;;;0.82;0.82;;;;;;;;;;1029314;28;20129;-78
2024/02/02 01:10:57;;;;;;;0.43;0.43;;;;;;;;;;1030035;28;20022;-78
2024/02/02 01:11:27;;;;;;;0.82;0.82;;;;;;;;;;1031583;28;20030;-78
2024/02/02 01:11:58;;;;;;;4.03;1.75;;;;;;;;;;1032007;28;20026;-79
2024/02/02 01:12:29;;;;;;;0.22;0.22;;;;;;;;;;1028859;28;20081;-78
2024/02/02 01:12:59;;;;;;;0.55;0.55;;;;;;;;;;1029741;28;20027;-78
2024/02/02 01:13:30;;;;;;;0.65;0.65;;;;;;;;;;1029532;28;20117;-78
2024/02/02 01:14:00;;;;;;;0.30;0.30;;;;;;;;;;1027159;28;20035;-78
2024/02/02 01:14:31;;;;;;;0.20;0.20;;;;;;;;;;1026002;28;20019;-78
2024/02/02 01:15:02;;;;;;;0.55;0.55;;;;;;;;;;1025361;28;20497;-79
2024/02/02 01:15:32;;;;;;;1.35;1.02;;;;;;;;;;1024552;28;20508;-78
2024/02/02 01:16:03;;;;;;;0.95;0.70;;;;;;;;;;1025486;28;20023;-78
2024/02/02 01:16:33;;;;;;;0.95;0.95;;;;;;;;;;1025801;28;20110;-78
2024/02/02 01:17:06;;;;;;;0.47;0.47;;;;;;;;;;1032419;28;20472;-78
2024/02/02 01:17:37;;;;;;;0.55;0.55;;;;;;;;;;1032800;28;20018;-78
2024/02/02 01:18:08;;;;;;;0.52;0.52;;;;;;;;;;1034652;28;20176;-78
2024/02/02 01:18:38;;;;;;;0.85;0.85;;;;;;;;;;1033224;28;20522;-78
2024/02/02 01:19:09;;;;;;;0.20;0.20;;;;;;;;;;1029146;28;20026;-79
2024/02/02 01:19:39;;;;;;;1.42;1.40;;;;;;;;;;1026574;28;20048;-79
2024/02/02 01:20:13;;;;;;;0.60;0.60;;;;;;;;;;1025093;28;20023;-78
2024/02/02 01:20:44;;;;;;;0.20;0.20;;;;;;;;;;1023996;28;20074;-78
2024/02/02 01:21:15;;;;;;;0.75;0.75;;;;;;;;;;1026064;28;20081;-78
2024/02/02 01:21:45;;;;;;;1.80;1.25;;;;;;;;;;1028127;28;20027;-78
2024/02/02 01:22:16;;;;;;;1.30;1.20;;;;;;;;;;1025321;28;20062;-78
2024/02/02 01:22:47;;;;;;;6.13;1.55;;;;;;;;;;1025015;28;20072;-79
2024/02/02 01:23:18;;;;;;;0.20;0.20;;;;;;;;;;1025551;28;20035;-78
2024/02/02 01:23:48;;;;;;;0.52;0.52;;;;;;;;;;1024725;28;20061;-78
2024/02/02 01:24:19;;;;;;;0.40;0.40;;;;;;;;;;1030470;28;20478;-78
2024/02/02 01:24:49;;;;;;;0.40;0.40;;;;;;;;;;1029194;28;20019;-78
2024/02/02 01:25:20;;;;;;;10.02;1.15;;;;;;;;;;1028815;28;20026;-78
2024/02/02 01:25:50;;;;;;;1.65;1.55;;;;;;;;;;1031021;28;20560;-78
2024/02/02 01:26:21;;;;;;;0.30;0.30;;;;;;;;;;1026177;28;20034;-78
2024/02/02 01:26:51;;;;;;;0.30;0.30;;;;;;;;;;1025960;28;20023;-78
2024/02/02 01:27:22;;;;;;;0.95;0.95;;;;;;;;;;1025814;28;20035;-78
2024/02/02 01:27:52;;;;;;;2.20;1.77;;;;;;;;;;1027923;28;20053;-78
2024/02/02 01:28:23;;;;;;;0.50;0.50;;;;;;;;;;1028976;28;20521;-78
2024/02/02 01:28:54;;;;;;;0.47;0.47;;;;;;;;;;1028813;28;20510;-78
2024/02/02 01:29:29;;;;;;;0.55;0.55;;;;;;;;;;1028377;28;20038;-78
2024/02/02 01:29:59;;;;;;;1.45;1.17;;;;;;;;;;1029247;28;20466;-78
2024/02/02 01:30:30;;;;;;;1.90;1.80;;;;;;;;;;1024824;28;20033;-78
2024/02/02 01:31:01;;;;;;;5.22;2.72;;;;;;;;;;1025244;28;20018;-78
2024/02/02 01:31:31;;;;;;;0.70;0.70;;;;;;;;;;1025322;28;20018;-78
2024/02/02 01:32:02;;;;;;;0.35;0.35;;;;;;;;;;1027070;28;20026;-78
2024/02/02 01:32:33;;;;;;;0.20;0.20;;;;;;;;;;1026982;28;20015;-79
2024/02/02 01:33:04;;;;;;;0.20;0.20;;;;;;;;;;1027043;28;20554;-78
2024/02/02 01:33:34;;;;;;;0.28;0.28;;;;;;;;;;1025524;28;20398;-78
2024/02/02 01:34:05;;;;;;;0.60;0.60;;;;;;;;;;1029795;28;20019;-79
2024/02/02 01:34:36;;;;;;;0.10;0.10;;;;;;;;;;1026797;28;20121;-78
2024/02/02 01:35:06;;;;;;;0.22;0.22;;;;;;;;;;1022368;28;20471;-79
2024/02/02 01:35:37;;;;;;;0.55;0.55;;;;;;;;;;1017095;29;20032;-79
2024/02/02 01:36:07;;;;;;;0.60;0.60;;;;;;;;;;1017867;29;20091;-78
2024/02/02 01:36:38;;;;;;;0.77;0.77;;;;;;;;;;1021593;28;20465;-78
2024/02/02 01:37:08;;;;;;;0.43;0.43;;;;;;;;;;1024355;28;20030;-78
2024/02/02 01:37:39;;;;;;;0.75;0.75;;;;;;;;;;1024704;28;20031;-78
2024/02/02 01:38:10;;;;;;;0.90;0.90;;;;;;;;;;1024650;28;20022;-78
2024/02/02 01:38:42;;;;;;;0.30;0.30;;;;;;;;;;1025950;28;20161;-78
2024/02/02 01:39:13;;;;;;;0.85;0.85;;;;;;;;;;1026053;28;20517;-78
2024/02/02 01:39:43;;;;;;;0.45;0.45;;;;;;;;;;1027168;28;20018;-78
2024/02/02 01:40:14;;;;;;;0.85;0.85;;;;;;;;;;1026598;28;20022;-78
2024/02/02 01:40:44;;;;;;;0.20;0.20;;;;;;;;;;1023336;28;20030;-78
2024/02/02 01:41:15;;;;;;;1.20;1.10;;;;;;;;;;1024154;28;20067;-79
2024/02/02 01:41:46;;;;;;;0.45;0.45;;;;;;;;;;1028839;28;20050;-79
2024/02/02 01:42:17;;;;;;;0.30;0.30;;;;;;;;;;1029049;28;20033;-78
2024/02/02 01:42:47;;;;;;;2.35;2.25;;;;;;;;;;1031160;28;20739;-78
2024/02/02 01:43:18;;;;;;;2.38;0.75;;;;;;;;;;1030752;28;20089;-79
2024/02/02 01:43:48;;;;;;;8.77;1.90;;;;;;;;;;1031386;28;20381;-79
2024/02/02 01:44:19;;;;;;;0.60;0.60;;;;;;;;;;1030425;28;20184;-78
2024/02/02 01:44:50;;;;;;;0.52;0.52;;;;;;;;;;1025756;28;20489;-78
2024/02/02 01:45:20;;;;;;;1.98;1.65;;;;;;;;;;1027932;28;20041;-78
2024/02/02 01:45:51;;;;;;;0.20;0.20;;;;;;;;;;1028663;28;20386;-78
2024/02/02 01:46:22;;;;;;;1.02;0.98;;;;;;;;;;1027361;28;20054;-78
2024/02/02 01:46:52;;;;;;;1.73;0.70;;;;;;;;;;1029790;28;20034;-78
2024/02/02 01:47:23;;;;;;;2.20;1.95;;;;;;;;;;1025522;28;20023;-78
2024/02/02 01:47:53;;;;;;;4.90;2.67;;;;;;;;;;1026624;28;20030;-78
2024/02/02 01:48:25;;;;;;;0.93;0.93;;;;;;;;;;1025626;28;20114;-79
2024/02/02 01:48:57;;;;;;;1.23;1.17;;;;;;;;;;1025541;28;20382;-78
2024/02/02 01:49:28;;;;;;;0.63;0.63;;;;;;;;;;1023947;28;20012;-78
2024/02/02 01:49:58;;;;;;;0.22;0.22;;;;;;;;;;1026633;28;20057;-78
2024/02/02 01:50:30;;;;;;;0.20;0.20;;;;;;;;;;1025647;28;20040;-78
2024/02/02 01:51:00;;;;;;;0.20;0.20;;;;;;;;;;1024692;28;20066;-79
2024/02/02 01:51:31;;;;;;;1.52;1.02;;;;;;;;;;1024730;28;20058;-79
2024/02/02 01:52:02;;;;;;;0.20;0.20;;;;;;;;;;1025340;28;20461;-79
2024/02/02 01:52:33;;;;;;;0.20;0.20;;;;;;;;;;1025982;28;20058;-78
2024/02/02 01:53:03;;;;;;;1.67;1.58;;;;;;;;;;1022253;29;20019;-78
2024/02/02 01:53:34;;;;;;;0.50;0.50;;;;;;;;;;1026327;28;20027;-78
2024/02/02 01:54:04;;;;;;;0.50;0.50;;;;;;;;;;1023454;28;20027;-79
2024/02/02 01:54:35;;;;;;;0.20;0.20;;;;;;;;;;1024869;28;20117;-78
2024/02/02 01:55:06;;;;;;;0.57;0.57;;;;;;;;;;1029632;28;20117;-78
2024/02/02 01:55:36;;;;;;;0.95;0.88;;;;;;;;;;1027581;28;20493;-78
2024/02/02 01:56:07;;;;;;;0.40;0.40;;;;;;;;;;1024802;28;20443;-78
2024/02/02 01:56:37;;;;;;;0.93;0.93;;;;;;;;;;1026102;28;20022;-78
2024/02/02 01:57:08;;;;;;;1.30;1.20;;;;;;;;;;1024997;28;20023;-79
2024/02/02 01:57:39;;;;;;;0.30;0.30;;;;;;;;;;1024715;28;20054;-78
2024/02/02 01:58:09;;;;;;;3.92;1.17;;;;;;;;;;1029264;28;20029;-78
2024/02/02 01:58:40;;;;;;;0.20;0.20;;;;;;;;;;1032870;28;20124;-78
2024/02/02 01:59:10;;;;;;;0.47;0.47;;;;;;;;;;1027966;28;20072;-78
2024/02/02 01:59:41;;;;;;;1.20;1.10;;;;;;;;;;1028282;28;20041;-79
2024/02/02 02:00:11;;;;;;;0.55;0.55;;;;;;;;;;1028871;28;20026;-79
2024/02/02 02:00:42;;;;;;;1.02;0.93;;;;;;;;;;1023372;28;20443;-79
2024/02/02 02:01:13;;;;;;;1.73;1.65;;;;;;;;;;1025067;28;20118;-78
2024/02/02 02:01:43;;;;;;;0.50;0.50;;;;;;;;;;1024272;28;20033;-78
2024/02/02 02:02:14;;;;;;;0.38;0.38;;;;;;;;;;1023788;28;20026;-78
2024/02/02 02:02:44;;;;;;;0.47;0.47;;;;;;;;;;1028164;28;20301;-79
2024/02/02 02:03:15;;;;;;;0.85;0.82;;;;;;;;;;1025059;28;20022;-79
2024/02/02 02:03:46;;;;;;;1.48;1.38;;;;;;;;;;1026675;28;20027;-78
2024/02/02 02:04:16;;;;;;;2.28;2.10;;;;;;;;;;1029874;28;20029;-79
2024/02/02 02:04:47;;;;;;;1.65;1.55;;;;;;;;;;1030728;28;20598;-78
2024/02/02 02:05:18;;;;;;;0.25;0.25;;;;;;;;;;1030825;28;20026;-79
2024/02/02 02:05:48;;;;;;;0.20;0.20;;;;;;;;;;1030607;28;20456;-78
2024/02/02 02:06:19;;;;;;;0.40;0.40;;;;;;;;;;1029677;28;20120;-79
2024/02/02 02:06:49;;;;;;;3.35;2.47;;;;;;;;;;1025877;28;20030;-78
2024/02/02 02:07:20;;;;;;;0.50;0.50;;;;;;;;;;1025066;28;20019;-77
2024/02/02 02:07:50;;;;;;;0.93;0.93;;;;;;;;;;1025063;28;20022;-77
2024/02/02 02:08:21;;;;;;;1.20;1.20;;;;;;;;;;1024092;28;20027;-77
2024/02/02 02:08:51;;;;;;;0.35;0.35;;;;;;;;;;1029103;28;20476;-77
2024/02/02 02:09:22;;;;;;;0.93;0.93;;;;;;;;;;1026498;28;20058;-77
2024/02/02 02:09:53;;;;;;;0.63;0.63;;;;;;;;;;1024912;28;20015;-77
2024/02/02 02:10:24;;;;;;;0.35;0.35;;;;;;;;;;1026510;28;20035;-77
2024/02/02 02:10:55;;;;;;;0.30;0.30;;;;;;;;;;1026312;28;20031;-77
2024/02/02 02:11:25;;;;;;;0.57;0.57;;;;;;;;;;1025790;28;20403;-77
2024/02/02 02:11:56;;;;;;;1.05;1.05;;;;;;;;;;1029675;28;20069;-77
2024/02/02 02:12:26;;;;;;;0.85;0.85;;;;;;;;;;1027695;28;20038;-77
2024/02/02 02:12:57;;;;;;;1.08;1.08;;;;;;;;;;1029983;28;20120;-77
2024/02/02 02:13:28;;;;;;;0.75;0.43;;;;;;;;;;1028201;28;20402;-77
2024/02/02 02:13:58;;;;;;;0.22;0.22;;;;;;;;;;1029113;28;20119;-77
2024/02/02 02:14:29;;;;;;;0.60;0.60;;;;;;;;;;1024462;28;20514;-77
2024/02/02 02:15:00;;;;;;;0.45;0.45;;;;;;;;;;1027696;28;20057;-77
2024/02/02 02:15:30;;;;;;;0.20;0.20;;;;;;;;;;1024066;28;20863;-77
2024/02/02 02:16:01;;;;;;;0.32;0.32;;;;;;;;;;1022094;28;20380;-77
2024/02/02 02:16:31;;;;;;;0.20;0.20;;;;;;;;;;1027457;28;20018;-77
2024/02/02 02:17:02;;;;;;;0.30;0.30;;;;;;;;;;1026113;28;20042;-77
2024/02/02 02:17:33;;;;;;;0.45;0.45;;;;;;;;;;1027621;28;20154;-77
2024/02/02 02:18:03;;;;;;;0.30;0.30;;;;;;;;;;1026116;28;20088;-80
2024/02/02 02:18:34;;;;;;;1.15;1.15;;;;;;;;;;1026754;28;20031;-79
2024/02/02 02:19:05;;;;;;;2.72;2.05;;;;;;;;;;1025679;28;20446;-78
2024/02/02 02:19:36;;;;;;;0.25;0.25;;;;;;;;;;1026576;28;20018;-78
2024/02/02 02:20:13;;;;;;;0.20;0.20;;;;;;;;;;1024634;28;20026;-78
2024/02/02 02:20:44;;;;;;;3.90;1.85;;;;;;;;;;1026319;28;20061;-78
2024/02/02 02:21:23;;;;;;;0.52;0.52;;;;;;;;;;1029406;28;20462;-78
2024/02/02 02:21:54;;;;;;;0.35;0.35;;;;;;;;;;1029536;28;20022;-78
2024/02/02 02:22:24;;;;;;;1.42;1.33;;;;;;;;;;1025490;28;20039;-79
2024/02/02 02:22:55;;;;;;;0.30;0.30;;;;;;;;;;1025871;28;20550;-78
2024/02/02 02:23:26;;;;;;;0.75;0.75;;;;;;;;;;1023817;28;20038;-78
2024/02/02 02:23:57;;;;;;;1.10;1.08;;;;;;;;;;1026744;28;20091;-79
2024/02/02 02:24:27;;;;;;;1.60;1.50;;;;;;;;;;1032211;28;20104;-78
2024/02/02 02:24:58;;;;;;;0.60;0.60;;;;;;;;;;1030482;28;20034;-79
2024/02/02 02:25:28;;;;;;;0.30;0.30;;;;;;;;;;1031274;28;20061;-78
2024/02/02 02:25:59;;;;;;;1.67;1.58;;;;;;;;;;1029073;28;20074;-78
2024/02/02 02:26:29;;;;;;;0.70;0.70;;;;;;;;;;1026951;28;20182;-78
2024/02/02 02:27:00;;;;;;;0.20;0.20;;;;;;;;;;1029886;28;20033;-78
2024/02/02 02:27:31;;;;;;;1.35;1.35;;;;;;;;;;1028610;28;20031;-78
2024/02/02 02:28:02;;;;;;;1.10;1.10;;;;;;;;;;1030296;28;20033;-78
2024/02/02 02:28:32;;;;;;;0.20;0.20;;;;;;;;;;1027792;28;20483;-79
2024/02/02 02:29:03;;;;;;;0.20;0.20;;;;;;;;;;1028432;28;20101;-79
2024/02/02 02:29:33;;;;;;;0.50;0.35;;;;;;;;;;1028028;28;20038;-79
2024/02/02 02:30:05;;;;;;;0.60;0.60;;;;;;;;;;1026678;28;20019;-78
2024/02/02 02:30:35;;;;;;;1.85;1.75;;;;;;;;;;1026715;28;20030;-78
2024/02/02 02:31:09;;;;;;;0.30;0.30;;;;;;;;;;1022686;29;20543;-78
2024/02/02 02:31:40;;;;;;;1.00;0.90;;;;;;;;;;1019859;29;20499;-78
2024/02/02 02:32:11;;;;;;;9.55;2.50;;;;;;;;;;1023218;28;20479;-78
2024/02/02 02:32:41;;;;;;;0.85;0.82;;;;;;;;;;1026435;28;20022;-78
2024/02/02 02:33:12;;;;;;;2.28;0.95;;;;;;;;;;1027436;28;20022;-78
2024/02/02 02:33:43;;;;;;;0.47;0.47;;;;;;;;;;1031153;28;20133;-78
2024/02/02 02:34:13;;;;;;;1.52;1.45;;;;;;;;;;1023770;28;20027;-78
2024/02/02 02:34:44;;;;;;;3.55;1.10;;;;;;;;;;1024701;28;20121;-78
2024/02/02 02:35:14;;;;;;;0.95;0.95;;;;;;;;;;1024615;28;20027;-78
2024/02/02 02:35:45;;;;;;;0.63;0.63;;;;;;;;;;1025452;28;20035;-78
2024/02/02 02:36:15;;;;;;;0.70;0.70;;;;;;;;;;1025080;28;20477;-79
2024/02/02 02:36:46;;;;;;;2.47;1.65;;;;;;;;;;1025484;28;20035;-78
2024/02/02 02:37:16;;;;;;;1.35;0.95;;;;;;;;;;1025595;28;20035;-78
2024/02/02 02:37:47;;;;;;;1.17;1.00;;;;;;;;;;1025708;28;20041;-78
2024/02/02 02:38:17;;;;;;;1.92;1.38;;;;;;;;;;1025169;28;20038;-78
2024/02/02 02:38:48;;;;;;;0.55;0.55;;;;;;;;;;1025089;28;20030;-78
2024/02/02 02:39:19;;;;;;;0.28;0.28;;;;;;;;;;1025533;28;20026;-78
2024/02/02 02:39:50;;;;;;;0.20;0.20;;;;;;;;;;1025403;28;20478;-78
2024/02/02 02:40:20;;;;;;;1.30;1.20;;;;;;;;;;1026346;28;20042;-78
2024/02/02 02:40:51;;;;;;;2.13;0.70;;;;;;;;;;1025380;28;20034;-77
2024/02/02 02:41:21;;;;;;;0.98;0.98;;;;;;;;;;1025222;28;20065;-78
2024/02/02 02:41:52;;;;;;;1.10;1.05;;;;;;;;;;1025418;28;20070;-78
2024/02/02 02:42:22;;;;;;;2.90;1.48;;;;;;;;;;1026458;28;20035;-78
2024/02/02 02:42:53;;;;;;;0.20;0.20;;;;;;;;;;1024938;28;20039;-79
2024/02/02 02:43:23;;;;;;;0.20;0.20;;;;;;;;;;1027969;28;20027;-79
2024/02/02 02:43:54;;;;;;;0.32;0.32;;;;;;;;;;1028256;28;20022;-79
2024/02/02 02:44:25;;;;;;;0.20;0.20;;;;;;;;;;1029028;28;20086;-79
2024/02/02 02:44:55;;;;;;;0.40;0.40;;;;;;;;;;1027641;28;20914;-79
2024/02/02 02:45:26;;;;;;;0.20;0.20;;;;;;;;;;1022935;28;20042;-78
2024/02/02 02:45:57;;;;;;;0.50;0.50;;;;;;;;;;1023550;28;20031;-79
2024/02/02 02:46:28;;;;;;;1.15;1.15;;;;;;;;;;1028951;28;20018;-78
2024/02/02 02:46:59;;;;;;;0.30;0.30;;;;;;;;;;1028750;28;20018;-78
2024/02/02 02:47:29;;;;;;;0.45;0.45;;;;;;;;;;1030459;28;20018;-79
2024/02/02 02:48:00;;;;;;;0.80;0.80;;;;;;;;;;1028835;28;20118;-79
2024/02/02 02:48:30;;;;;;;0.95;0.95;;;;;;;;;;1030664;28;20469;-78
2024/02/02 02:49:01;;;;;;;0.30;0.30;;;;;;;;;;1031336;28;20081;-78
2024/02/02 02:49:32;;;;;;;0.30;0.30;;;;;;;;;;1029395;28;20029;-78
2024/02/02 02:50:04;;;;;;;3.42;0.98;;;;;;;;;;1026226;28;20031;-79
2024/02/02 02:50:35;;;;;;;0.35;0.35;;;;;;;;;;1025411;28;20019;-78
2024/02/02 02:51:06;;;;;;;0.30;0.30;;;;;;;;;;1025272;28;20078;-78
2024/02/02 02:51:36;;;;;;;1.85;1.75;;;;;;;;;;1027534;28;20109;-78
2024/02/02 02:52:06;;;;;;;0.60;0.60;;;;;;;;;;1031303;28;20022;-78
2024/02/02 02:52:37;;;;;;;0.30;0.30;;;;;;;;;;1025879;28;20030;-78
2024/02/02 02:53:08;;;;;;;1.17;0.85;;;;;;;;;;1026620;28;20052;-78
2024/02/02 02:53:38;;;;;;;0.40;0.40;;;;;;;;;;1025657;28;20478;-78
2024/02/02 02:54:10;;;;;;;1.13;1.13;;;;;;;;;;1024359;28;20106;-78
2024/02/02 02:54:40;;;;;;;0.30;0.30;;;;;;;;;;1025678;28;20495;-78
2024/02/02 02:55:11;;;;;;;4.38;0.85;;;;;;;;;;1026500;28;20027;-78
2024/02/02 02:55:41;;;;;;;1.25;0.70;;;;;;;;;;1024687;28;20027;-78
2024/02/02 02:56:12;;;;;;;0.40;0.40;;;;;;;;;;1027341;28;20030;-78
2024/02/02 02:56:43;;;;;;;0.65;0.65;;;;;;;;;;1027569;28;20034;-78
2024/02/02 02:57:13;;;;;;;0.25;0.25;;;;;;;;;;1028154;28;20041;-79
2024/02/02 02:57:44;;;;;;;0.28;0.28;;;;;;;;;;1029692;28;20034;-78
2024/02/02 02:58:14;;;;;;;1.27;1.20;;;;;;;;;;1026011;28;20078;-78
2024/02/02 02:58:45;;;;;;;6.10;1.83;;;;;;;;;;1027360;28;20036;-78
2024/02/02 02:59:16;;;;;;;1.58;1.50;;;;;;;;;;1028666;28;20402;-78
2024/02/02 02:59:47;;;;;;;5.72;4.38;;;;;;;;;;1027952;28;20030;-79
2024/02/02 03:00:17;;;;;;;0.73;0.73;;;;;;;;;;1028893;28;20431;-78
2024/02/02 03:00:48;;;;;;;1.27;1.27;;;;;;;;;;1030805;28;20034;-78
2024/02/02 03:01:18;;;;;;;1.15;0.68;;;;;;;;;;1030947;28;20026;-78
2024/02/02 03:01:49;;;;;;;1.10;1.10;;;;;;;;;;1031137;28;20045;-78
2024/02/02 03:02:19;;;;;;;0.47;0.47;;;;;;;;;;1030282;28;20045;-78
2024/02/02 03:02:50;;;;;;;0.20;0.20;;;;;;;;;;1025876;28;20023;-78
2024/02/02 03:03:20;;;;;;;1.23;1.23;;;;;;;;;;1024926;28;20563;-79
2024/02/02 03:03:51;;;;;;;0.82;0.82;;;;;;;;;;1028437;28;20039;-78
2024/02/02 03:04:22;;;;;;;0.50;0.50;;;;;;;;;;1029642;28;20520;-78